Time;durP1;ratioP1;P1;durP2;ratioP2;P2;SDS_P1;SDS_P2;PMS_P1;PMS_P2;Temp;Humidity;BMP_temperature;BMP_pressure;BME280_temperature;BME280_humidity;BME280_pressure;Samples;Min_cycle;Max_cycle;Signal;HPM_P1;HPM_P2
2022/01/09 00:02:05;;;;;;;11.83;6.47;;;0.40;99.90;;;;;;5059529;28;20478;-75
2022/01/09 00:04:32;;;;;;;6.70;5.87;;;0.40;99.90;;;;;;5070423;28;20468;-74
2022/01/09 00:06:58;;;;;;;7.07;5.27;;;0.40;99.90;;;;;;5062026;28;20876;-75
2022/01/09 00:09:28;;;;;;;8.43;6.83;;;0.40;99.90;;;;;;5070103;28;20532;-75
2022/01/09 00:11:55;;;;;;;9.60;6.30;;;0.40;99.90;;;;;;5062876;28;20971;-75
2022/01/09 00:14:21;;;;;;;8.07;5.17;;;0.40;99.90;;;;;;5068648;28;20479;-74
2022/01/09 00:16:48;;;;;;;6.23;5.10;;;0.40;99.90;;;;;;5069576;28;20448;-74
2022/01/09 00:19:14;;;;;;;8.07;6.53;;;0.50;99.90;;;;;;5068158;28;20505;-74
2022/01/09 00:21:41;;;;;;;6.90;5.77;;;0.50;99.90;;;;;;5068489;28;20963;-75
2022/01/09 00:24:08;;;;;;;8.10;6.10;;;0.50;99.90;;;;;;5068964;28;21236;-74
2022/01/09 00:26:36;;;;;;;9.70;6.10;;;0.50;99.90;;;;;;5067027;28;20451;-74
2022/01/09 00:29:02;;;;;;;14.27;7.03;;;0.50;99.90;;;;;;5058992;28;20512;-74
2022/01/09 00:31:29;;;;;;;8.00;6.00;;;0.50;99.90;;;;;;5057778;28;20510;-73
2022/01/09 00:33:55;;;;;;;7.00;5.87;;;0.50;99.90;;;;;;5051086;28;20488;-75
2022/01/09 00:36:22;;;;;;;8.90;6.03;;;0.50;99.90;;;;;;5049788;28;20798;-76
2022/01/09 00:38:49;;;;;;;9.00;6.20;;;0.50;99.90;;;;;;5056995;28;20448;-75
2022/01/09 00:41:15;;;;;;;8.30;6.00;;;0.50;99.90;;;;;;5068984;28;20451;-74
2022/01/09 00:43:43;;;;;;;8.17;6.00;;;0.50;99.90;;;;;;5064552;28;20529;-74
2022/01/09 00:46:10;;;;;;;10.10;6.10;;;0.50;99.90;;;;;;5066243;28;20456;-74
2022/01/09 00:48:38;;;;;;;8.43;6.40;;;0.50;99.90;;;;;;5050024;28;20448;-75
2022/01/09 00:51:05;;;;;;;9.40;6.40;;;0.50;99.90;;;;;;5050424;28;20488;-75
2022/01/09 00:53:32;;;;;;;9.00;6.73;;;0.50;99.90;;;;;;5050015;28;20515;-75
2022/01/09 00:55:59;;;;;;;8.77;6.53;;;0.50;99.90;;;;;;5049774;28;20798;-75
2022/01/09 00:58:25;;;;;;;12.40;7.00;;;0.50;99.90;;;;;;5051722;28;20460;-75
2022/01/09 01:00:53;;;;;;;8.80;6.40;;;0.50;99.90;;;;;;5069140;28;20447;-76
2022/01/09 01:03:20;;;;;;;11.80;7.60;;;0.50;99.90;;;;;;5069068;28;20465;-75
2022/01/09 01:05:47;;;;;;;9.13;6.90;;;0.60;99.90;;;;;;5069668;28;20497;-74
2022/01/09 01:08:14;;;;;;;8.37;6.37;;;0.70;99.90;;;;;;5069487;28;20447;-74
2022/01/09 01:10:40;;;;;;;9.30;6.17;;;0.60;99.90;;;;;;5060588;28;20546;-74
2022/01/09 01:13:07;;;;;;;7.50;6.00;;;0.70;99.90;;;;;;5052295;28;20991;-76
2022/01/09 01:15:33;;;;;;;10.63;7.40;;;0.70;99.90;;;;;;5051770;28;21061;-74
2022/01/09 01:18:02;;;;;;;9.30;7.60;;;0.70;99.90;;;;;;5053018;28;21030;-75
2022/01/09 01:20:30;;;;;;;12.93;7.67;;;0.80;99.90;;;;;;5053675;28;20501;-74
2022/01/09 01:22:58;;;;;;;9.60;6.30;;;0.80;99.90;;;;;;5053524;28;20480;-74
2022/01/09 01:25:25;;;;;;;11.03;7.40;;;0.90;99.90;;;;;;5061436;28;20566;-74
2022/01/09 01:27:52;;;;;;;9.23;6.80;;;0.90;99.90;;;;;;5064538;28;20841;-77
2022/01/09 01:30:19;;;;;;;14.40;7.30;;;0.90;99.90;;;;;;5072876;28;20548;-74
2022/01/09 01:32:46;;;;;;;8.20;6.67;;;0.90;99.90;;;;;;5052693;28;20457;-74
2022/01/09 01:35:14;;;;;;;8.77;6.67;;;1.10;99.90;;;;;;5053199;28;20476;-74
2022/01/09 01:37:42;;;;;;;8.70;6.37;;;1.00;99.90;;;;;;5055039;28;20456;-74
2022/01/09 01:40:11;;;;;;;9.50;6.57;;;1.00;99.90;;;;;;5067221;28;20461;-76
2022/01/09 01:42:38;;;;;;;12.33;7.10;;;1.00;99.90;;;;;;5057831;28;20510;-74
2022/01/09 01:45:06;;;;;;;10.07;6.80;;;1.00;99.90;;;;;;5052709;28;20471;-74
2022/01/09 01:47:33;;;;;;;11.40;7.47;;;1.00;99.90;;;;;;5068877;28;20509;-75
2022/01/09 01:49:59;;;;;;;13.53;7.53;;;1.20;99.90;;;;;;5072554;28;20479;-73
2022/01/09 01:52:31;;;;;;;13.10;7.07;;;1.20;99.90;;;;;;5059195;28;20502;-74
2022/01/09 01:54:58;;;;;;;7.93;6.67;;;0.80;99.90;;;;;;5052373;28;20476;-75
2022/01/09 01:57:25;;;;;;;9.47;4.80;;;1.10;99.90;;;;;;5068438;28;20482;-73
2022/01/09 01:59:52;;;;;;;9.57;6.70;;;1.10;99.90;;;;;;5071699;28;20900;-74
2022/01/09 02:02:18;;;;;;;11.13;6.20;;;1.10;99.90;;;;;;5063907;28;20475;-73
2022/01/09 02:04:45;;;;;;;8.20;6.17;;;1.10;99.90;;;;;;5055175;28;20557;-74
2022/01/09 02:07:12;;;;;;;8.63;6.30;;;1.10;99.90;;;;;;5072142;28;20440;-73
2022/01/09 02:09:40;;;;;;;13.63;6.57;;;1.20;99.90;;;;;;5065808;28;20456;-73
2022/01/09 02:12:07;;;;;;;5.93;5.33;;;1.20;99.90;;;;;;5054485;28;20445;-74
2022/01/09 02:14:35;;;;;;;10.80;6.97;;;1.20;99.90;;;;;;5067702;28;20475;-74
2022/01/09 02:17:02;;;;;;;7.23;5.97;;;1.20;99.90;;;;;;5072323;28;20501;-74
2022/01/09 02:19:29;;;;;;;12.13;5.90;;;1.20;99.90;;;;;;5054701;28;20460;-73
2022/01/09 02:21:59;;;;;;;8.13;6.67;;;1.10;99.90;;;;;;5071325;28;20842;-73
2022/01/09 02:24:26;;;;;;;6.73;5.93;;;1.20;99.90;;;;;;5067743;28;20485;-74
2022/01/09 02:26:52;;;;;;;9.30;6.50;;;1.20;99.90;;;;;;5058374;28;20530;-74
2022/01/09 02:29:19;;;;;;;8.53;5.90;;;1.20;99.90;;;;;;5066837;28;20447;-73
2022/01/09 02:31:46;;;;;;;7.90;6.70;;;1.20;99.90;;;;;;5071620;28;21049;-77
2022/01/09 02:34:13;;;;;;;7.30;6.57;;;1.20;99.90;;;;;;5094872;22;20483;-78
2022/01/09 02:36:39;;;;;;;11.10;7.20;;;1.20;99.90;;;;;;5075257;28;20509;-79
2022/01/09 02:39:07;;;;;;;8.47;6.40;;;1.20;99.90;;;;;;5075138;28;20447;-79
2022/01/09 02:41:34;;;;;;;8.57;6.90;;;1.20;99.90;;;;;;5075676;28;20452;-78
2022/01/09 02:44:08;;;;;;;9.23;6.50;;;1.20;99.90;;;;;;5076401;28;20447;-78
2022/01/09 02:46:44;;;;;;;8.47;6.60;;;1.20;99.90;;;;;;5057782;28;20949;-78
2022/01/09 02:49:11;;;;;;;13.70;6.90;;;1.20;99.90;;;;;;5056802;28;20468;-79
2022/01/09 02:51:39;;;;;;;7.57;6.30;;;1.10;99.90;;;;;;5057754;28;20476;-79
2022/01/09 02:55:05;;;;;;;8.20;6.47;;;1.10;99.90;;;;;;5067666;28;20456;-78
2022/01/09 02:57:00;;;;;;;8.33;6.30;;;1.10;99.90;;;;;;5069809;28;20455;-78
2022/01/09 02:59:27;;;;;;;8.40;6.43;;;1.10;99.90;;;;;;5057828;28;20452;-79
2022/01/09 03:01:53;;;;;;;7.50;5.70;;;1.10;99.90;;;;;;5068679;28;20454;-79
2022/01/09 03:04:20;;;;;;;10.97;6.70;;;1.10;99.90;;;;;;5067505;28;20480;-78
2022/01/09 03:06:47;;;;;;;6.50;5.90;;;1.20;99.90;;;;;;5057021;28;20456;-79
2022/01/09 03:09:15;;;;;;;7.60;6.37;;;1.20;99.90;;;;;;5063611;28;21006;-79
2022/01/09 03:11:41;;;;;;;10.10;5.83;;;1.20;99.90;;;;;;5075537;28;20487;-78
2022/01/09 03:14:08;;;;;;;13.57;6.63;;;1.20;99.90;;;;;;5075777;28;20475;-78
2022/01/09 03:16:36;;;;;;;9.20;6.27;;;1.30;99.90;;;;;;5074934;28;20568;-79
2022/01/09 03:19:03;;;;;;;9.60;6.10;;;1.40;99.90;;;;;;5071026;28;20467;-79
2022/01/09 03:21:29;;;;;;;8.80;6.00;;;1.30;99.90;;;;;;5056675;28;20474;-79
2022/01/09 03:23:56;;;;;;;7.60;5.97;;;1.30;99.90;;;;;;5076794;28;20459;-79
2022/01/09 03:26:24;;;;;;;9.80;6.00;;;1.30;99.90;;;;;;5076054;28;20517;-79
2022/01/09 03:28:51;;;;;;;7.57;5.70;;;1.30;99.90;;;;;;5057896;28;20483;-79
2022/01/09 03:31:17;;;;;;;9.43;6.07;;;1.30;99.90;;;;;;5057143;28;20489;-79
2022/01/09 03:33:44;;;;;;;9.43;6.60;;;1.40;99.90;;;;;;5057411;28;20467;-78
2022/01/09 03:36:11;;;;;;;7.10;5.57;;;1.40;99.90;;;;;;5059723;28;20480;-79
2022/01/09 03:38:37;;;;;;;6.63;5.80;;;1.40;99.90;;;;;;5076020;28;20444;-79
2022/01/09 03:41:04;;;;;;;9.00;5.30;;;1.50;99.90;;;;;;5076355;28;20478;-79
2022/01/09 03:43:33;;;;;;;6.03;4.53;;;1.50;99.90;;;;;;5075291;28;20456;-79
2022/01/09 03:46:00;;;;;;;6.00;5.00;;;1.50;99.90;;;;;;5073143;28;20484;-79
2022/01/09 03:48:26;;;;;;;7.17;5.60;;;1.50;99.90;;;;;;5057193;28;20453;-79
2022/01/09 03:50:53;;;;;;;13.30;5.20;;;1.50;99.90;;;;;;5076345;28;20475;-79
2022/01/09 03:53:20;;;;;;;5.53;4.80;;;1.50;99.90;;;;;;5078005;28;20455;-79
2022/01/09 03:55:46;;;;;;;5.87;5.03;;;1.60;99.90;;;;;;5058387;28;20507;-79
2022/01/09 03:58:13;;;;;;;5.60;4.93;;;1.60;99.90;;;;;;5070981;28;20443;-79
2022/01/09 04:00:42;;;;;;;5.50;4.97;;;1.50;99.90;;;;;;5067615;28;20458;-79
2022/01/09 04:03:08;;;;;;;5.00;4.50;;;1.60;99.90;;;;;;5073907;28;20898;-79
2022/01/09 04:05:35;;;;;;;6.10;4.70;;;1.60;99.90;;;;;;5073670;28;21041;-79
2022/01/09 04:08:02;;;;;;;4.97;4.43;;;1.60;99.90;;;;;;5075995;28;20455;-79
2022/01/09 04:10:30;;;;;;;4.87;3.23;;;1.60;99.90;;;;;;5057493;28;20444;-79
2022/01/09 04:12:59;;;;;;;2.80;2.60;;;1.60;99.90;;;;;;5057238;28;20535;-79
2022/01/09 04:15:28;;;;;;;2.80;1.90;;;1.60;99.90;;;;;;5060057;28;20646;-78
2022/01/09 04:17:57;;;;;;;1.70;1.60;;;1.70;99.90;;;;;;5055176;28;20884;-79
2022/01/09 04:20:26;;;;;;;1.30;1.20;;;1.80;99.90;;;;;;5061449;28;20451;-79
2022/01/09 04:22:53;;;;;;;1.33;1.23;;;1.80;99.90;;;;;;5057628;28;20448;-79
2022/01/09 04:25:21;;;;;;;1.10;1.00;;;2.00;99.90;;;;;;5056515;28;20895;-78
2022/01/09 04:27:49;;;;;;;1.47;0.90;;;2.10;99.90;;;;;;5059990;28;20452;-78
2022/01/09 04:30:16;;;;;;;1.10;1.00;;;2.20;99.90;;;;;;5054234;28;20505;-78
2022/01/09 04:32:44;;;;;;;4.03;1.10;;;2.30;99.90;;;;;;5053566;28;20530;-79
2022/01/09 04:35:13;;;;;;;1.10;1.00;;;2.30;99.90;;;;;;5070230;28;20495;-78
2022/01/09 04:37:40;;;;;;;1.20;1.10;;;2.40;99.90;;;;;;5075277;28;20447;-79
2022/01/09 04:40:10;;;;;;;1.13;1.03;;;2.40;99.90;;;;;;5072106;28;20448;-78
2022/01/09 04:42:41;;;;;;;1.20;1.10;;;2.60;99.90;;;;;;5056320;28;20516;-78
2022/01/09 04:45:09;;;;;;;1.10;1.00;;;2.70;99.90;;;;;;5055907;28;21150;-78
2022/01/09 04:47:36;;;;;;;1.10;1.00;;;2.70;99.90;;;;;;5057066;28;20451;-79
2022/01/09 04:50:04;;;;;;;1.10;1.00;;;2.80;99.90;;;;;;5078799;28;20518;-79
2022/01/09 04:52:36;;;;;;;1.00;0.90;;;2.80;99.90;;;;;;5076684;28;20482;-79
2022/01/09 04:55:03;;;;;;;1.03;0.90;;;2.90;99.90;;;;;;5080269;28;20583;-80
2022/01/09 04:57:29;;;;;;;1.00;0.90;;;3.00;99.90;;;;;;5061968;28;20475;-80
2022/01/09 04:59:56;;;;;;;1.00;0.90;;;2.90;99.90;;;;;;5072166;28;20459;-80
2022/01/09 05:02:23;;;;;;;0.90;0.80;;;2.80;99.90;;;;;;5079207;28;20493;-80
2022/01/09 05:04:50;;;;;;;0.93;0.83;;;2.80;99.90;;;;;;5077029;28;20471;-80
2022/01/09 05:07:16;;;;;;;1.10;0.93;;;2.80;99.90;;;;;;5063804;28;20455;-80
2022/01/09 05:09:44;;;;;;;0.90;0.80;;;2.70;99.90;;;;;;5073519;28;20959;-80
2022/01/09 05:12:11;;;;;;;1.00;0.90;;;2.70;99.90;;;;;;5063677;28;20495;-80
2022/01/09 05:14:38;;;;;;;0.90;0.80;;;2.70;99.90;;;;;;5075713;28;20470;-80
2022/01/09 05:17:05;;;;;;;1.00;0.90;;;2.70;99.90;;;;;;5070697;28;20970;-80
2022/01/09 05:19:33;;;;;;;1.00;0.90;;;2.70;99.90;;;;;;5078423;28;20436;-80
2022/01/09 05:22:01;;;;;;;1.00;0.80;;;2.60;99.90;;;;;;5064393;28;20631;-81
2022/01/09 05:24:28;;;;;;;0.90;0.80;;;2.60;99.90;;;;;;5057952;28;20472;-79
2022/01/09 05:26:56;;;;;;;0.90;0.80;;;2.60;99.90;;;;;;5063247;28;20455;-79
2022/01/09 05:29:23;;;;;;;1.10;0.80;;;2.60;99.90;;;;;;5068867;28;20453;-80
2022/01/09 05:31:50;;;;;;;0.90;0.80;;;2.60;99.90;;;;;;5057122;28;20828;-80
2022/01/09 05:34:16;;;;;;;0.90;0.80;;;2.70;99.90;;;;;;5057508;28;20456;-80
2022/01/09 05:36:43;;;;;;;0.90;0.80;;;2.60;99.90;;;;;;5060679;28;20529;-79
2022/01/09 05:39:11;;;;;;;0.90;0.80;;;2.30;99.90;;;;;;5073949;28;20490;-81
2022/01/09 05:41:38;;;;;;;1.00;0.90;;;2.50;99.90;;;;;;5077033;28;20435;-81
2022/01/09 05:44:07;;;;;;;0.90;0.70;;;2.50;99.90;;;;;;5077182;28;20459;-80
2022/01/09 05:46:33;;;;;;;1.00;0.90;;;2.50;99.90;;;;;;5076089;28;20459;-80
2022/01/09 05:49:00;;;;;;;1.00;0.90;;;2.40;99.90;;;;;;5071814;28;20447;-80
2022/01/09 05:51:27;;;;;;;0.90;0.80;;;2.40;99.90;;;;;;5076182;28;20556;-80
2022/01/09 05:53:53;;;;;;;0.90;0.80;;;2.30;99.90;;;;;;5076354;28;21000;-80
2022/01/09 05:56:20;;;;;;;1.30;0.90;;;2.30;99.90;;;;;;5074937;28;20475;-79
2022/01/09 05:58:47;;;;;;;0.90;0.73;;;2.20;99.90;;;;;;5059984;28;20448;-79
2022/01/09 06:01:15;;;;;;;0.90;0.80;;;2.20;99.90;;;;;;5070507;28;20456;-78
2022/01/09 06:03:42;;;;;;;0.90;0.80;;;2.10;99.90;;;;;;5066586;28;20456;-80
2022/01/09 06:06:08;;;;;;;0.90;0.80;;;2.10;99.90;;;;;;5076052;28;20537;-80
2022/01/09 06:08:35;;;;;;;0.90;0.80;;;2.10;99.90;;;;;;5077076;28;20448;-80
2022/01/09 06:11:02;;;;;;;0.90;0.80;;;2.10;99.90;;;;;;5061477;28;20457;-79
2022/01/09 06:13:28;;;;;;;1.00;0.80;;;2.10;99.90;;;;;;5063801;28;20475;-79
2022/01/09 06:15:55;;;;;;;1.00;0.90;;;2.10;99.90;;;;;;5075055;28;20773;-79
2022/01/09 06:18:23;;;;;;;1.00;0.80;;;2.10;99.90;;;;;;5081881;28;20440;-80
2022/01/09 06:20:51;;;;;;;1.03;0.93;;;2.10;99.90;;;;;;5080139;28;20987;-79
2022/01/09 06:23:20;;;;;;;1.00;0.90;;;2.20;99.90;;;;;;5082566;28;20520;-81
2022/01/09 06:25:47;;;;;;;0.90;0.80;;;2.10;99.90;;;;;;5063923;28;20538;-79
2022/01/09 06:28:14;;;;;;;1.00;0.90;;;2.10;99.90;;;;;;5073155;28;20509;-79
2022/01/09 06:30:41;;;;;;;2.50;0.80;;;2.00;99.90;;;;;;5081698;28;20967;-80
2022/01/09 06:33:07;;;;;;;2.27;1.00;;;2.00;99.90;;;;;;5082169;28;20487;-81
2022/01/09 06:35:35;;;;;;;1.00;0.90;;;2.00;99.90;;;;;;5080366;28;20520;-80
2022/01/09 06:38:02;;;;;;;1.00;0.90;;;2.00;99.90;;;;;;5081526;28;20872;-80
2022/01/09 06:40:29;;;;;;;0.90;0.80;;;2.00;99.90;;;;;;5076842;28;20786;-79
2022/01/09 06:42:56;;;;;;;0.90;0.80;;;2.00;99.90;;;;;;5079223;28;20448;-80
2022/01/09 06:45:24;;;;;;;1.00;0.90;;;2.00;99.90;;;;;;5078630;28;20497;-80
2022/01/09 06:47:51;;;;;;;1.20;0.90;;;2.10;99.90;;;;;;5067542;28;20498;-80
2022/01/09 06:50:18;;;;;;;1.10;1.00;;;2.10;99.90;;;;;;5058659;28;20464;-81
2022/01/09 06:52:46;;;;;;;1.57;1.13;;;2.10;99.90;;;;;;5074689;28;20486;-80
2022/01/09 06:55:13;;;;;;;1.40;1.30;;;2.10;99.90;;;;;;5078129;28;20471;-82
2022/01/09 06:57:40;;;;;;;1.73;1.60;;;2.10;99.90;;;;;;5070026;28;20456;-76
2022/01/09 07:00:09;;;;;;;5.60;1.73;;;2.20;99.90;;;;;;5058962;28;20502;-81
2022/01/09 07:02:36;;;;;;;3.67;1.83;;;2.20;99.90;;;;;;5075568;28;20454;-81
2022/01/09 07:05:04;;;;;;;4.00;2.37;;;2.30;99.90;;;;;;5079446;28;20475;-80
2022/01/09 07:07:31;;;;;;;3.10;2.30;;;2.40;99.90;;;;;;5069871;28;20453;-80
2022/01/09 07:09:59;;;;;;;6.77;2.67;;;2.50;99.90;;;;;;5065270;28;20863;-80
2022/01/09 07:12:26;;;;;;;10.57;2.90;;;2.50;99.90;;;;;;5067656;28;20475;-80
2022/01/09 07:14:52;;;;;;;10.90;3.10;;;2.60;99.90;;;;;;5081920;28;20486;-81
2022/01/09 07:17:19;;;;;;;7.07;3.17;;;2.70;99.90;;;;;;5081830;28;20463;-81
2022/01/09 07:19:46;;;;;;;4.87;2.90;;;2.80;99.90;;;;;;5083844;28;20934;-81
2022/01/09 07:22:12;;;;;;;7.97;2.90;;;2.80;99.90;;;;;;5062947;28;20452;-80
2022/01/09 07:24:39;;;;;;;17.27;3.33;;;2.80;99.90;;;;;;5058549;28;20475;-79
2022/01/09 07:27:07;;;;;;;11.07;3.47;;;2.80;99.90;;;;;;5063350;28;20540;-79
2022/01/09 07:29:34;;;;;;;9.13;3.40;;;2.90;99.90;;;;;;5069698;28;20501;-77
2022/01/09 07:32:01;;;;;;;11.47;3.33;;;3.00;99.90;;;;;;5074840;28;20507;-77
2022/01/09 07:34:28;;;;;;;20.43;4.83;;;3.10;99.90;;;;;;5072867;28;21062;-76
2022/01/09 07:36:54;;;;;;;10.83;3.80;;;3.10;99.90;;;;;;5072213;28;20451;-76
2022/01/09 07:39:21;;;;;;;19.37;3.60;;;3.20;99.90;;;;;;5054391;28;20449;-74
2022/01/09 07:41:48;;;;;;;21.93;4.00;;;3.20;99.90;;;;;;5051987;28;20448;-76
2022/01/09 07:44:16;;;;;;;13.20;4.60;;;3.20;99.90;;;;;;5052004;28;20460;-75
2022/01/09 07:46:43;;;;;;;22.47;4.40;;;3.20;99.90;;;;;;5052099;28;20461;-76
2022/01/09 07:49:10;;;;;;;16.73;4.60;;;3.30;99.90;;;;;;5051909;28;20456;-76
2022/01/09 07:51:37;;;;;;;15.90;4.20;;;3.30;99.90;;;;;;5051876;28;20986;-77
2022/01/09 07:54:03;;;;;;;14.80;4.17;;;3.40;99.90;;;;;;5051525;28;20456;-79
2022/01/09 07:56:30;;;;;;;13.43;4.13;;;3.40;99.90;;;;;;5052097;28;20494;-77
2022/01/09 07:58:56;;;;;;;15.40;4.20;;;3.40;99.90;;;;;;5062503;28;20457;-78
2022/01/09 08:01:24;;;;;;;16.27;4.33;;;3.40;99.90;;;;;;5053882;28;20460;-78
2022/01/09 08:03:52;;;;;;;15.65;3.78;;;3.50;99.90;;;;;;5070397;28;20445;-76
2022/01/09 08:06:19;;;;;;;13.87;4.57;;;3.60;99.90;;;;;;5064905;28;20221;-76
2022/01/09 08:08:45;;;;;;;17.23;4.07;;;3.60;99.90;;;;;;5051572;28;20461;-76
2022/01/09 08:11:12;;;;;;;16.03;4.07;;;3.60;99.90;;;;;;5065097;28;20455;-77
2022/01/09 08:13:39;;;;;;;20.80;4.97;;;3.50;99.90;;;;;;5071071;28;20556;-76
2022/01/09 08:16:05;;;;;;;21.13;4.30;;;3.50;99.90;;;;;;5067177;28;20460;-76
2022/01/09 08:18:33;;;;;;;27.63;5.70;;;3.50;99.90;;;;;;5054461;28;20456;-78
2022/01/09 08:21:00;;;;;;;30.17;3.77;;;3.50;99.90;;;;;;5049591;28;20456;-77
2022/01/09 08:23:27;;;;;;;14.33;4.10;;;3.50;99.90;;;;;;5061183;28;20451;-75
2022/01/09 08:25:53;;;;;;;10.47;3.40;;;3.50;99.90;;;;;;5070265;28;20475;-76
2022/01/09 08:28:20;;;;;;;11.57;3.90;;;3.60;99.90;;;;;;5052861;28;20456;-77
2022/01/09 08:30:47;;;;;;;13.03;4.00;;;3.60;99.90;;;;;;5051760;28;20514;-76
2022/01/09 08:33:13;;;;;;;12.07;4.30;;;3.60;99.90;;;;;;5052112;28;20480;-75
2022/01/09 08:35:41;;;;;;;16.83;4.30;;;3.60;99.90;;;;;;5058036;28;20483;-73
2022/01/09 08:38:08;;;;;;;11.77;3.73;;;3.60;99.90;;;;;;5069839;28;20910;-73
2022/01/09 08:40:35;;;;;;;13.50;3.70;;;3.70;99.90;;;;;;5070294;28;20513;-73
2022/01/09 08:43:01;;;;;;;27.83;5.30;;;3.70;99.90;;;;;;5058030;28;20945;-74
2022/01/09 08:45:28;;;;;;;15.10;3.67;;;3.70;99.90;;;;;;5053558;28;20538;-74
2022/01/09 08:47:55;;;;;;;13.27;4.13;;;3.70;99.90;;;;;;5050266;28;20460;-73
2022/01/09 08:50:23;;;;;;;22.83;5.20;;;3.70;99.90;;;;;;5050747;28;21077;-74
2022/01/09 08:52:52;;;;;;;8.20;4.67;;;3.70;99.90;;;;;;5070155;28;20487;-74
2022/01/09 08:55:18;;;;;;;17.27;5.40;;;3.70;99.90;;;;;;5069690;28;20493;-74
2022/01/09 08:57:45;;;;;;;11.90;4.37;;;3.70;99.90;;;;;;5058321;28;20518;-73
2022/01/09 09:00:13;;;;;;;14.60;5.30;;;3.80;99.90;;;;;;5055704;28;20452;-75
2022/01/09 09:02:41;;;;;;;22.60;5.27;;;3.80;99.90;;;;;;5067000;28;20459;-73
2022/01/09 09:05:08;;;;;;;13.30;4.40;;;3.80;99.90;;;;;;5069861;28;21011;-75
2022/01/09 09:07:35;;;;;;;16.33;4.80;;;3.70;99.90;;;;;;5070153;28;20436;-73
2022/01/09 09:10:04;;;;;;;15.23;3.97;;;3.70;99.90;;;;;;5059943;28;20460;-74
2022/01/09 09:12:31;;;;;;;10.47;4.80;;;3.70;99.90;;;;;;5050214;28;20479;-72
2022/01/09 09:14:58;;;;;;;16.57;4.47;;;3.70;99.90;;;;;;5056970;28;20986;-73
2022/01/09 09:17:25;;;;;;;21.03;5.00;;;3.70;99.90;;;;;;5068760;28;20451;-74
2022/01/09 09:19:51;;;;;;;11.90;4.10;;;3.70;99.90;;;;;;5049826;28;20456;-74
2022/01/09 09:22:18;;;;;;;9.20;3.90;;;3.70;99.90;;;;;;5050518;28;20494;-75
2022/01/09 09:24:45;;;;;;;8.90;3.43;;;3.90;99.90;;;;;;5050849;28;20522;-74
2022/01/09 09:27:14;;;;;;;13.30;4.77;;;3.70;99.90;;;;;;5053018;28;20800;-72
2022/01/09 09:29:40;;;;;;;10.90;3.80;;;3.70;99.90;;;;;;5066125;28;20459;-74
2022/01/09 09:32:07;;;;;;;8.70;3.20;;;3.70;99.90;;;;;;5068083;28;20823;-75
2022/01/09 09:34:34;;;;;;;11.10;4.30;;;3.70;99.90;;;;;;5069571;28;20510;-72
2022/01/09 09:37:01;;;;;;;20.17;4.40;;;3.70;99.90;;;;;;5071199;28;20456;-73
2022/01/09 09:39:28;;;;;;;11.87;3.80;;;3.70;99.90;;;;;;5062910;28;20456;-72
2022/01/09 09:41:55;;;;;;;8.87;3.80;;;3.70;99.90;;;;;;5053919;28;20444;-73
2022/01/09 09:44:23;;;;;;;10.77;3.30;;;3.70;99.90;;;;;;5072454;28;20577;-75
2022/01/09 09:46:51;;;;;;;13.13;3.67;;;3.70;99.90;;;;;;5072981;28;20507;-74
2022/01/09 09:49:18;;;;;;;6.10;3.40;;;3.70;99.90;;;;;;5073102;28;20477;-74
2022/01/09 09:51:45;;;;;;;13.60;3.43;;;3.70;99.90;;;;;;5073922;28;20982;-77
2022/01/09 09:54:12;;;;;;;7.27;3.03;;;3.70;99.90;;;;;;5073231;28;20486;-75
2022/01/09 09:56:39;;;;;;;6.27;3.33;;;3.70;99.90;;;;;;5070684;28;20616;-77
2022/01/09 09:59:06;;;;;;;7.00;2.90;;;3.70;99.90;;;;;;5052887;28;20472;-76
2022/01/09 10:01:36;;;;;;;6.70;3.17;;;3.70;99.90;;;;;;5055785;28;20830;-72
2022/01/09 10:04:06;;;;;;;5.10;3.03;;;3.70;99.90;;;;;;5064384;28;20865;-72
2022/01/09 10:06:41;;;;;;;10.30;5.13;;;3.70;99.90;;;;;;5061515;28;20441;-72
2022/01/09 10:09:11;;;;;;;5.83;3.00;;;3.70;99.90;;;;;;5061806;28;20452;-72
2022/01/09 10:11:46;;;;;;;7.90;3.33;;;3.80;99.90;;;;;;5063883;28;20452;-73
2022/01/09 10:14:15;;;;;;;11.43;4.10;;;3.80;99.90;;;;;;5063865;28;20573;-73
2022/01/09 10:17:06;;;;;;;8.00;3.10;;;3.80;99.90;;;;;;5060996;28;20975;-73
2022/01/09 10:19:45;;;;;;;16.00;3.30;;;3.80;99.90;;;;;;5063255;28;20493;-72
2022/01/09 10:22:32;;;;;;;5.50;2.83;;;3.90;99.90;;;;;;5062986;28;20530;-74
2022/01/09 10:25:17;;;;;;;9.60;3.10;;;3.90;99.90;;;;;;5061555;28;20837;-73
2022/01/09 10:27:44;;;;;;;8.73;2.83;;;4.00;99.90;;;;;;5061281;28;20565;-73
2022/01/09 10:30:11;;;;;;;6.33;2.90;;;4.00;99.90;;;;;;5061310;28;20456;-74
2022/01/09 10:32:40;;;;;;;17.70;4.03;;;4.10;99.90;;;;;;5061765;28;20476;-73
2022/01/09 10:35:13;;;;;;;5.93;3.53;;;4.20;99.90;;;;;;5062974;28;20533;-74
2022/01/09 10:37:42;;;;;;;7.60;3.37;;;4.30;99.90;;;;;;5059219;28;20459;-73
2022/01/09 10:40:11;;;;;;;9.60;2.77;;;4.40;99.90;;;;;;5062730;28;20455;-72
2022/01/09 10:42:39;;;;;;;7.43;3.30;;;4.30;99.90;;;;;;5063180;28;20932;-73
2022/01/09 10:45:23;;;;;;;9.67;3.10;;;4.20;99.90;;;;;;5062123;28;20551;-73
2022/01/09 10:47:55;;;;;;;5.03;2.50;;;4.20;99.90;;;;;;5059839;28;20456;-71
2022/01/09 10:50:27;;;;;;;8.30;2.77;;;4.20;99.90;;;;;;5061506;28;20516;-70
2022/01/09 10:53:13;;;;;;;9.10;3.30;;;4.10;99.90;;;;;;5052456;28;20476;-72
2022/01/09 10:55:39;;;;;;;12.63;2.87;;;4.20;99.90;;;;;;5056946;28;20886;-72
2022/01/09 10:58:16;;;;;;;9.07;3.10;;;4.20;99.90;;;;;;5062277;28;20453;-72
2022/01/09 11:00:43;;;;;;;11.03;2.70;;;4.20;99.90;;;;;;5054486;28;20452;-72
2022/01/09 11:03:11;;;;;;;8.93;3.10;;;4.20;99.90;;;;;;5072125;28;20448;-71
2022/01/09 11:05:39;;;;;;;13.27;3.37;;;4.20;99.90;;;;;;5070938;28;20471;-73
2022/01/09 11:08:07;;;;;;;9.67;3.10;;;4.50;99.90;;;;;;5070764;28;20959;-77
2022/01/09 11:10:34;;;;;;;8.20;2.80;;;5.00;99.90;;;;;;5060441;28;20505;-77
2022/01/09 11:13:02;;;;;;;19.47;3.70;;;5.20;99.90;;;;;;5062611;28;20480;-76
2022/01/09 11:15:31;;;;;;;8.87;3.27;;;5.30;99.90;;;;;;5054104;28;20457;-78
2022/01/09 11:18:01;;;;;;;8.53;3.03;;;5.60;99.90;;;;;;5079860;28;20550;-76
2022/01/09 11:20:31;;;;;;;10.33;2.67;;;5.90;99.90;;;;;;5073182;28;20481;-75
2022/01/09 11:23:00;;;;;;;8.30;3.40;;;6.40;99.90;;;;;;5053222;28;20590;-76
2022/01/09 11:25:35;;;;;;;5.90;2.70;;;6.60;99.90;;;;;;5053028;28;20472;-75
2022/01/09 11:28:12;;;;;;;13.43;3.57;;;6.80;99.90;;;;;;5053582;28;20452;-75
2022/01/09 11:30:59;;;;;;;5.53;2.40;;;7.00;99.90;;;;;;5051747;28;20466;-74
2022/01/09 11:33:40;;;;;;;4.47;2.70;;;6.80;99.90;;;;;;5055087;28;20487;-75
2022/01/09 11:36:16;;;;;;;5.63;2.67;;;6.50;99.90;;;;;;5067009;28;20479;-75
2022/01/09 11:38:53;;;;;;;11.87;2.93;;;6.40;99.90;;;;;;5051015;28;20460;-71
2022/01/09 11:41:22;;;;;;;5.47;2.70;;;6.40;99.90;;;;;;5051953;28;20459;-72
2022/01/09 11:43:54;;;;;;;14.07;3.30;;;6.60;99.90;;;;;;5069951;28;20461;-71
2022/01/09 11:46:21;;;;;;;5.47;3.10;;;6.90;99.90;;;;;;5069581;28;20556;-72
2022/01/09 11:49:00;;;;;;;4.37;3.20;;;7.10;99.90;;;;;;5071188;28;20477;-71
2022/01/09 11:51:29;;;;;;;6.10;2.87;;;7.10;99.90;;;;;;5068531;28;20528;-74
2022/01/09 11:54:02;;;;;;;3.87;2.47;;;7.20;99.90;;;;;;5050614;28;20484;-74
2022/01/09 11:56:58;;;;;;;6.60;2.83;;;6.90;99.90;;;;;;5051281;28;20457;-73
2022/01/09 11:59:27;;;;;;;13.90;4.10;;;6.50;99.90;;;;;;5051965;28;20456;-74
2022/01/09 12:01:56;;;;;;;10.27;2.70;;;6.30;99.90;;;;;;5050170;28;20453;-72
2022/01/09 12:04:54;;;;;;;9.67;3.00;;;5.90;99.90;;;;;;5068971;28;20479;-74
2022/01/09 12:07:54;;;;;;;7.87;2.87;;;5.70;99.90;;;;;;5071171;28;20455;-73
2022/01/09 12:10:29;;;;;;;9.27;3.10;;;5.60;99.90;;;;;;5039574;28;20491;-73
2022/01/09 12:12:57;;;;;;;12.80;3.23;;;5.50;99.90;;;;;;5055215;28;20867;-74
2022/01/09 12:15:43;;;;;;;4.37;2.70;;;5.50;99.90;;;;;;5054125;28;20460;-74
2022/01/09 12:18:43;;;;;;;7.27;3.13;;;5.40;99.90;;;;;;5051088;28;20453;-75
2022/01/09 12:21:11;;;;;;;3.83;2.77;;;5.20;99.90;;;;;;5052095;28;20459;-74
2022/01/09 12:23:37;;;;;;;9.30;3.00;;;5.10;99.90;;;;;;5051211;28;20459;-74
2022/01/09 12:26:06;;;;;;;6.30;2.60;;;5.10;99.90;;;;;;5055611;28;21032;-74
2022/01/09 12:28:45;;;;;;;5.63;3.20;;;5.00;99.90;;;;;;5058261;28;20484;-74
2022/01/09 12:31:27;;;;;;;6.47;3.50;;;5.00;99.90;;;;;;5052373;28;20452;-73
2022/01/09 12:33:54;;;;;;;9.80;3.30;;;5.00;99.90;;;;;;5058120;28;20483;-74
2022/01/09 12:36:35;;;;;;;8.07;3.40;;;5.00;99.90;;;;;;5050502;28;20480;-74
2022/01/09 12:39:05;;;;;;;6.57;3.00;;;5.00;99.90;;;;;;5050691;28;20498;-74
2022/01/09 12:41:39;;;;;;;9.27;3.30;;;5.00;99.90;;;;;;5050985;28;20463;-73
2022/01/09 12:44:08;;;;;;;8.13;3.27;;;4.80;99.90;;;;;;5051153;28;20448;-74
2022/01/09 12:46:39;;;;;;;6.40;2.70;;;4.90;99.90;;;;;;5051516;28;20965;-73
2022/01/09 12:49:08;;;;;;;10.33;2.90;;;4.90;99.90;;;;;;5050701;28;20459;-74
2022/01/09 12:51:36;;;;;;;10.10;3.00;;;5.10;99.90;;;;;;5050736;28;20452;-74
2022/01/09 12:54:06;;;;;;;3.83;2.90;;;5.20;99.90;;;;;;5050768;28;20484;-74
2022/01/09 12:56:34;;;;;;;7.77;2.83;;;5.20;99.90;;;;;;5058031;28;20462;-74
2022/01/09 12:59:06;;;;;;;3.70;2.40;;;5.20;99.90;;;;;;5051133;28;20492;-74
2022/01/09 13:01:36;;;;;;;4.17;2.40;;;5.20;99.90;;;;;;5057776;28;20456;-74